sensor_id;sensor_type;location;lat;lon;timestamp;pressure;altitude;pressure_sealevel;temperature;humidity
64521;BME280;50896;46.714;17.322;2023-06-10T00:02:06;100018.41;;;19.02;100.00
64521;BME280;50896;46.714;17.322;2023-06-10T00:04:33;100014.19;;;18.94;100.00
64521;BME280;50896;46.714;17.322;2023-06-10T00:07:01;100018.13;;;18.91;100.00
64521;BME280;50896;46.714;17.322;2023-06-10T00:09:29;100018.19;;;18.85;100.00
64521;BME280;50896;46.714;17.322;2023-06-10T00:11:56;100024.94;;;18.75;100.00
64521;BME280;50896;46.714;17.322;2023-06-10T00:14:26;100027.19;;;18.78;100.00
64521;BME280;50896;46.714;17.322;2023-06-10T00:16:53;100027.41;;;18.58;100.00
64521;BME280;50896;46.714;17.322;2023-06-10T00:19:20;100033.31;;;18.67;100.00
64521;BME280;50896;46.714;17.322;2023-06-10T00:21:52;100025.56;;;18.59;100.00
64521;BME280;50896;46.714;17.322;2023-06-10T00:24:19;100020.97;;;18.59;100.00
64521;BME280;50896;46.714;17.322;2023-06-10T00:26:46;100027.31;;;18.65;100.00
64521;BME280;50896;46.714;17.322;2023-06-10T00:29:13;100026.28;;;18.66;100.00
64521;BME280;50896;46.714;17.322;2023-06-10T00:31:40;100028.69;;;18.74;100.00
64521;BME280;50896;46.714;17.322;2023-06-10T00:34:08;100029.41;;;18.82;100.00
64521;BME280;50896;46.714;17.322;2023-06-10T00:36:35;100031.16;;;18.76;100.00
64521;BME280;50896;46.714;17.322;2023-06-10T00:39:04;100037.50;;;18.63;100.00
64521;BME280;50896;46.714;17.322;2023-06-10T00:41:31;100032.88;;;18.70;100.00
64521;BME280;50896;46.714;17.322;2023-06-10T00:44:00;100037.00;;;18.73;100.00
64521;BME280;50896;46.714;17.322;2023-06-10T00:46:27;100037.06;;;18.66;100.00
64521;BME280;50896;46.714;17.322;2023-06-10T00:48:55;100026.38;;;18.59;100.00
64521;BME280;50896;46.714;17.322;2023-06-10T00:51:22;100030.31;;;18.57;100.00
64521;BME280;50896;46.714;17.322;2023-06-10T00:53:49;100037.34;;;18.58;100.00
64521;BME280;50896;46.714;17.322;2023-06-10T00:56:16;100028.25;;;18.59;100.00
64521;BME280;50896;46.714;17.322;2023-06-10T00:58:43;100032.88;;;18.52;100.00
64521;BME280;50896;46.714;17.322;2023-06-10T01:01:11;100031.97;;;18.39;100.00
64521;BME280;50896;46.714;17.322;2023-06-10T01:03:39;100036.22;;;18.28;100.00
64521;BME280;50896;46.714;17.322;2023-06-10T01:08:48;100036.72;;;18.19;100.00
64521;BME280;50896;46.714;17.322;2023-06-10T01:11:25;100037.53;;;18.19;100.00
64521;BME280;50896;46.714;17.322;2023-06-10T01:13:55;100030.66;;;18.23;100.00
64521;BME280;50896;46.714;17.322;2023-06-10T01:16:23;100033.34;;;18.23;100.00
64521;BME280;50896;46.714;17.322;2023-06-10T01:18:50;100027.44;;;18.15;100.00
64521;BME280;50896;46.714;17.322;2023-06-10T01:21:22;100023.56;;;18.10;100.00
64521;BME280;50896;46.714;17.322;2023-06-10T01:23:54;100028.22;;;17.97;100.00
64521;BME280;50896;46.714;17.322;2023-06-10T01:26:26;100022.75;;;18.10;100.00
64521;BME280;50896;46.714;17.322;2023-06-10T01:29:03;100031.78;;;18.16;100.00
64521;BME280;50896;46.714;17.322;2023-06-10T01:34:10;100030.91;;;18.22;100.00
64521;BME280;50896;46.714;17.322;2023-06-10T01:36:38;100037.69;;;18.24;100.00
64521;BME280;50896;46.714;17.322;2023-06-10T01:39:08;100033.47;;;18.35;100.00
64521;BME280;50896;46.714;17.322;2023-06-10T01:41:35;100030.16;;;18.33;100.00
64521;BME280;50896;46.714;17.322;2023-06-10T01:44:03;100033.69;;;18.34;100.00
64521;BME280;50896;46.714;17.322;2023-06-10T01:46:30;100034.19;;;18.24;100.00
64521;BME280;50896;46.714;17.322;2023-06-10T01:48:57;100025.50;;;18.22;100.00
64521;BME280;50896;46.714;17.322;2023-06-10T01:51:24;100026.19;;;18.17;100.00
64521;BME280;50896;46.714;17.322;2023-06-10T01:53:51;100025.16;;;18.18;100.00
64521;BME280;50896;46.714;17.322;2023-06-10T01:56:19;100024.38;;;18.11;100.00
64521;BME280;50896;46.714;17.322;2023-06-10T01:58:47;100026.69;;;18.07;100.00
64521;BME280;50896;46.714;17.322;2023-06-10T02:01:14;100020.34;;;18.02;100.00
64521;BME280;50896;46.714;17.322;2023-06-10T02:03:41;100018.47;;;18.02;100.00
64521;BME280;50896;46.714;17.322;2023-06-10T02:06:08;100013.88;;;18.03;100.00
64521;BME280;50896;46.714;17.322;2023-06-10T02:08:35;100012.63;;;18.05;100.00
64521;BME280;50896;46.714;17.322;2023-06-10T02:11:02;100015.94;;;18.07;100.00
64521;BME280;50896;46.714;17.322;2023-06-10T02:13:29;100016.44;;;17.98;100.00
64521;BME280;50896;46.714;17.322;2023-06-10T02:15:56;100001.38;;;17.90;100.00
64521;BME280;50896;46.714;17.322;2023-06-10T02:18:28;100002.09;;;17.79;100.00
64521;BME280;50896;46.714;17.322;2023-06-10T02:20:55;100006.88;;;17.76;100.00
64521;BME280;50896;46.714;17.322;2023-06-10T02:23:21;100008.44;;;17.84;100.00
64521;BME280;50896;46.714;17.322;2023-06-10T02:25:48;100009.88;;;17.87;100.00
64521;BME280;50896;46.714;17.322;2023-06-10T02:28:17;100009.28;;;17.85;100.00
64521;BME280;50896;46.714;17.322;2023-06-10T02:30:44;100008.63;;;17.89;100.00
64521;BME280;50896;46.714;17.322;2023-06-10T02:33:11;100003.47;;;17.88;100.00
64521;BME280;50896;46.714;17.322;2023-06-10T02:35:39;100000.44;;;17.77;100.00
64521;BME280;50896;46.714;17.322;2023-06-10T02:38:06;100006.97;;;17.63;100.00
64521;BME280;50896;46.714;17.322;2023-06-10T02:40:34;99994.25;;;17.52;100.00
64521;BME280;50896;46.714;17.322;2023-06-10T02:43:01;100001.53;;;17.45;100.00
64521;BME280;50896;46.714;17.322;2023-06-10T02:45:28;100002.75;;;17.49;100.00
64521;BME280;50896;46.714;17.322;2023-06-10T02:47:57;100001.69;;;17.50;100.00
64521;BME280;50896;46.714;17.322;2023-06-10T02:50:24;100003.34;;;17.51;100.00
64521;BME280;50896;46.714;17.322;2023-06-10T02:53:06;99996.16;;;17.45;100.00
64521;BME280;50896;46.714;17.322;2023-06-10T02:55:34;100001.31;;;17.46;100.00
64521;BME280;50896;46.714;17.322;2023-06-10T02:58:05;100005.44;;;17.49;100.00
64521;BME280;50896;46.714;17.322;2023-06-10T03:00:32;100007.06;;;17.50;100.00
64521;BME280;50896;46.714;17.322;2023-06-10T03:02:59;100005.88;;;17.46;100.00
64521;BME280;50896;46.714;17.322;2023-06-10T03:05:34;100012.59;;;17.55;100.00
64521;BME280;50896;46.714;17.322;2023-06-10T03:08:04;100008.25;;;17.54;100.00
64521;BME280;50896;46.714;17.322;2023-06-10T03:10:33;100009.97;;;17.48;100.00
64521;BME280;50896;46.714;17.322;2023-06-10T03:13:01;100015.78;;;17.45;100.00
64521;BME280;50896;46.714;17.322;2023-06-10T03:15:28;100022.03;;;17.39;100.00
64521;BME280;50896;46.714;17.322;2023-06-10T03:18:00;100023.94;;;17.32;100.00
64521;BME280;50896;46.714;17.322;2023-06-10T03:20:28;100020.44;;;17.24;100.00
64521;BME280;50896;46.714;17.322;2023-06-10T03:22:56;100024.50;;;17.40;100.00
64521;BME280;50896;46.714;17.322;2023-06-10T03:25:23;100023.03;;;17.45;100.00
64521;BME280;50896;46.714;17.322;2023-06-10T03:27:53;100025.28;;;17.48;100.00
64521;BME280;50896;46.714;17.322;2023-06-10T03:30:20;100034.31;;;17.53;100.00
64521;BME280;50896;46.714;17.322;2023-06-10T03:32:49;100034.81;;;17.43;100.00
64521;BME280;50896;46.714;17.322;2023-06-10T03:35:19;100037.78;;;17.60;100.00
64521;BME280;50896;46.714;17.322;2023-06-10T03:37:46;100040.88;;;17.64;100.00
64521;BME280;50896;46.714;17.322;2023-06-10T03:40:13;100039.22;;;17.63;100.00
64521;BME280;50896;46.714;17.322;2023-06-10T03:42:43;100046.69;;;17.61;100.00
64521;BME280;50896;46.714;17.322;2023-06-10T03:45:13;100050.41;;;17.60;100.00
64521;BME280;50896;46.714;17.322;2023-06-10T03:47:40;100045.47;;;17.57;100.00
64521;BME280;50896;46.714;17.322;2023-06-10T03:50:10;100045.00;;;17.67;100.00
64521;BME280;50896;46.714;17.322;2023-06-10T03:52:40;100056.75;;;17.72;100.00
64521;BME280;50896;46.714;17.322;2023-06-10T03:55:10;100058.97;;;17.75;100.00
64521;BME280;50896;46.714;17.322;2023-06-10T03:57:40;100058.09;;;17.82;100.00
64521;BME280;50896;46.714;17.322;2023-06-10T04:00:07;100061.84;;;17.81;100.00
64521;BME280;50896;46.714;17.322;2023-06-10T04:02:41;100062.22;;;17.84;100.00
64521;BME280;50896;46.714;17.322;2023-06-10T04:05:20;100059.06;;;17.94;100.00
64521;BME280;50896;46.714;17.322;2023-06-10T04:07:48;100063.88;;;17.92;100.00
64521;BME280;50896;46.714;17.322;2023-06-10T04:10:15;100064.09;;;17.84;100.00
64521;BME280;50896;46.714;17.322;2023-06-10T04:12:42;100068.44;;;17.85;100.00
64521;BME280;50896;46.714;17.322;2023-06-10T04:15:10;100073.28;;;18.01;100.00
64521;BME280;50896;46.714;17.322;2023-06-10T04:17:38;100073.78;;;18.17;100.00
64521;BME280;50896;46.714;17.322;2023-06-10T04:20:05;100070.50;;;18.15;100.00
64521;BME280;50896;46.714;17.322;2023-06-10T04:22:35;100073.59;;;18.37;100.00
64521;BME280;50896;46.714;17.322;2023-06-10T04:25:03;100077.16;;;18.31;100.00
64521;BME280;50896;46.714;17.322;2023-06-10T04:27:30;100074.81;;;18.41;100.00
64521;BME280;50896;46.714;17.322;2023-06-10T04:29:57;100074.19;;;18.39;100.00
64521;BME280;50896;46.714;17.322;2023-06-10T04:32:24;100077.78;;;18.33;100.00
64521;BME280;50896;46.714;17.322;2023-06-10T04:34:51;100080.63;;;18.38;100.00
64521;BME280;50896;46.714;17.322;2023-06-10T04:37:18;100083.09;;;18.39;100.00
64521;BME280;50896;46.714;17.322;2023-06-10T04:39:44;100083.94;;;18.58;100.00
64521;BME280;50896;46.714;17.322;2023-06-10T04:42:11;100080.94;;;18.67;100.00
64521;BME280;50896;46.714;17.322;2023-06-10T04:44:40;100086.66;;;18.77;100.00
64521;BME280;50896;46.714;17.322;2023-06-10T04:47:07;100092.03;;;18.77;100.00
64521;BME280;50896;46.714;17.322;2023-06-10T04:49:34;100081.16;;;18.84;100.00
64521;BME280;50896;46.714;17.322;2023-06-10T04:52:03;100086.56;;;18.84;100.00
64521;BME280;50896;46.714;17.322;2023-06-10T04:54:35;100086.19;;;18.80;100.00
64521;BME280;50896;46.714;17.322;2023-06-10T04:57:02;100089.66;;;18.87;100.00
64521;BME280;50896;46.714;17.322;2023-06-10T04:59:29;100086.91;;;18.94;100.00
64521;BME280;50896;46.714;17.322;2023-06-10T05:01:56;100090.84;;;18.91;100.00
64521;BME280;50896;46.714;17.322;2023-06-10T05:04:23;100089.56;;;19.12;100.00
64521;BME280;50896;46.714;17.322;2023-06-10T05:06:50;100081.16;;;19.21;100.00
64521;BME280;50896;46.714;17.322;2023-06-10T05:09:17;100083.31;;;19.30;100.00
64521;BME280;50896;46.714;17.322;2023-06-10T05:11:43;100084.03;;;19.07;100.00
64521;BME280;50896;46.714;17.322;2023-06-10T05:14:11;100083.06;;;19.20;100.00
64521;BME280;50896;46.714;17.322;2023-06-10T05:16:38;100078.44;;;19.39;100.00
64521;BME280;50896;46.714;17.322;2023-06-10T05:19:05;100088.31;;;19.45;100.00
64521;BME280;50896;46.714;17.322;2023-06-10T05:21:34;100076.91;;;19.43;100.00
64521;BME280;50896;46.714;17.322;2023-06-10T05:24:01;100076.75;;;19.57;100.00
64521;BME280;50896;46.714;17.322;2023-06-10T05:26:28;100074.56;;;19.77;100.00
64521;BME280;50896;46.714;17.322;2023-06-10T05:28:58;100076.72;;;19.99;100.00
64521;BME280;50896;46.714;17.322;2023-06-10T05:31:25;100074.16;;;20.16;100.00
64521;BME280;50896;46.714;17.322;2023-06-10T05:33:53;100075.06;;;19.86;100.00
64521;BME280;50896;46.714;17.322;2023-06-10T05:36:19;100076.59;;;19.94;100.00
64521;BME280;50896;46.714;17.322;2023-06-10T05:38:47;100077.69;;;19.93;100.00
64521;BME280;50896;46.714;17.322;2023-06-10T05:41:13;100082.69;;;19.89;100.00
64521;BME280;50896;46.714;17.322;2023-06-10T05:43:40;100081.22;;;20.17;100.00
64521;BME280;50896;46.714;17.322;2023-06-10T05:46:07;100083.66;;;20.19;100.00
64521;BME280;50896;46.714;17.322;2023-06-10T05:48:34;100083.22;;;20.34;100.00
64521;BME280;50896;46.714;17.322;2023-06-10T05:51:01;100089.41;;;20.34;100.00
64521;BME280;50896;46.714;17.322;2023-06-10T05:53:28;100079.31;;;20.41;100.00
64521;BME280;50896;46.714;17.322;2023-06-10T05:55:55;100084.03;;;20.46;100.00
64521;BME280;50896;46.714;17.322;2023-06-10T05:58:24;100081.09;;;20.47;100.00
64521;BME280;50896;46.714;17.322;2023-06-10T06:00:51;100082.50;;;20.50;100.00
64521;BME280;50896;46.714;17.322;2023-06-10T06:03:18;100079.06;;;20.66;100.00
64521;BME280;50896;46.714;17.322;2023-06-10T06:05:45;100077.81;;;20.57;100.00
64521;BME280;50896;46.714;17.322;2023-06-10T06:08:12;100066.28;;;20.62;100.00
64521;BME280;50896;46.714;17.322;2023-06-10T06:10:45;100065.47;;;20.73;100.00
64521;BME280;50896;46.714;17.322;2023-06-10T06:13:14;100074.38;;;20.86;100.00
64521;BME280;50896;46.714;17.322;2023-06-10T06:15:42;100074.97;;;20.88;100.00
64521;BME280;50896;46.714;17.322;2023-06-10T06:18:08;100074.81;;;20.94;100.00
64521;BME280;50896;46.714;17.322;2023-06-10T06:20:35;100069.03;;;21.03;100.00
64521;BME280;50896;46.714;17.322;2023-06-10T06:23:02;100071.84;;;21.08;100.00
64521;BME280;50896;46.714;17.322;2023-06-10T06:25:29;100071.97;;;21.01;100.00
64521;BME280;50896;46.714;17.322;2023-06-10T06:27:56;100074.91;;;21.11;100.00
64521;BME280;50896;46.714;17.322;2023-06-10T06:30:23;100076.28;;;21.14;100.00
64521;BME280;50896;46.714;17.322;2023-06-10T06:32:49;100072.00;;;21.30;100.00
64521;BME280;50896;46.714;17.322;2023-06-10T06:35:18;100075.09;;;21.22;100.00
64521;BME280;50896;46.714;17.322;2023-06-10T06:37:45;100075.13;;;21.39;100.00
64521;BME280;50896;46.714;17.322;2023-06-10T06:40:24;100078.19;;;21.42;100.00
64521;BME280;50896;46.714;17.322;2023-06-10T06:42:51;100074.69;;;21.30;100.00
64521;BME280;50896;46.714;17.322;2023-06-10T06:45:53;100075.34;;;21.08;100.00
64521;BME280;50896;46.714;17.322;2023-06-10T06:48:19;100071.34;;;21.11;100.00
64521;BME280;50896;46.714;17.322;2023-06-10T06:50:48;100079.28;;;21.29;100.00
64521;BME280;50896;46.714;17.322;2023-06-10T06:53:14;100071.66;;;21.26;100.00
64521;BME280;50896;46.714;17.322;2023-06-10T06:55:41;100078.47;;;21.29;100.00
64521;BME280;50896;46.714;17.322;2023-06-10T06:58:08;100079.94;;;21.20;100.00
64521;BME280;50896;46.714;17.322;2023-06-10T07:00:35;100080.66;;;21.32;100.00
64521;BME280;50896;46.714;17.322;2023-06-10T07:03:02;100088.47;;;21.28;100.00
64521;BME280;50896;46.714;17.322;2023-06-10T07:05:29;100083.66;;;21.59;100.00
64521;BME280;50896;46.714;17.322;2023-06-10T07:07:57;100083.53;;;21.54;100.00
64521;BME280;50896;46.714;17.322;2023-06-10T07:10:25;100086.44;;;21.64;100.00
64521;BME280;50896;46.714;17.322;2023-06-10T07:12:53;100085.44;;;21.54;100.00
64521;BME280;50896;46.714;17.322;2023-06-10T07:15:20;100075.94;;;21.68;100.00
64521;BME280;50896;46.714;17.322;2023-06-10T07:17:47;100078.41;;;21.70;100.00
64521;BME280;50896;46.714;17.322;2023-06-10T07:20:14;100070.94;;;21.77;100.00
64521;BME280;50896;46.714;17.322;2023-06-10T07:22:42;100070.88;;;21.89;100.00
64521;BME280;50896;46.714;17.322;2023-06-10T07:25:08;100065.97;;;22.02;100.00
64521;BME280;50896;46.714;17.322;2023-06-10T07:27:36;100068.53;;;21.92;100.00
64521;BME280;50896;46.714;17.322;2023-06-10T07:30:05;100063.31;;;21.74;100.00
64521;BME280;50896;46.714;17.322;2023-06-10T07:32:33;100067.28;;;22.00;100.00
64521;BME280;50896;46.714;17.322;2023-06-10T07:35:00;100060.31;;;22.04;100.00
64521;BME280;50896;46.714;17.322;2023-06-10T07:37:27;100071.63;;;22.01;100.00
64521;BME280;50896;46.714;17.322;2023-06-10T07:39:55;100074.47;;;21.60;100.00
64521;BME280;50896;46.714;17.322;2023-06-10T07:42:22;100072.09;;;21.81;100.00
64521;BME280;50896;46.714;17.322;2023-06-10T07:44:49;100072.78;;;21.88;100.00
64521;BME280;50896;46.714;17.322;2023-06-10T07:47:16;100067.94;;;21.73;100.00
64521;BME280;50896;46.714;17.322;2023-06-10T07:49:43;100074.88;;;21.69;100.00
64521;BME280;50896;46.714;17.322;2023-06-10T07:52:10;100063.97;;;21.81;100.00
64521;BME280;50896;46.714;17.322;2023-06-10T07:54:36;100070.38;;;21.92;100.00
64521;BME280;50896;46.714;17.322;2023-06-10T07:57:03;100070.22;;;21.81;100.00
64521;BME280;50896;46.714;17.322;2023-06-10T07:59:31;100067.19;;;21.78;100.00
64521;BME280;50896;46.714;17.322;2023-06-10T08:01:57;100070.78;;;21.83;100.00
64521;BME280;50896;46.714;17.322;2023-06-10T08:04:24;100079.09;;;22.11;100.00
64521;BME280;50896;46.714;17.322;2023-06-10T08:06:51;100077.03;;;22.18;100.00
64521;BME280;50896;46.714;17.322;2023-06-10T08:09:18;100078.97;;;22.23;100.00
64521;BME280;50896;46.714;17.322;2023-06-10T08:11:46;100083.50;;;22.34;100.00
64521;BME280;50896;46.714;17.322;2023-06-10T08:14:13;100082.59;;;22.45;100.00
64521;BME280;50896;46.714;17.322;2023-06-10T08:16:41;100078.25;;;22.27;100.00
64521;BME280;50896;46.714;17.322;2023-06-10T08:19:08;100080.28;;;22.20;100.00
64521;BME280;50896;46.714;17.322;2023-06-10T08:21:35;100071.78;;;21.94;100.00
64521;BME280;50896;46.714;17.322;2023-06-10T08:24:07;100075.78;;;21.92;100.00
64521;BME280;50896;46.714;17.322;2023-06-10T08:26:34;100079.56;;;22.25;100.00
64521;BME280;50896;46.714;17.322;2023-06-10T08:29:01;100072.34;;;22.69;100.00
64521;BME280;50896;46.714;17.322;2023-06-10T08:31:28;100086.66;;;22.87;100.00
64521;BME280;50896;46.714;17.322;2023-06-10T08:33:54;100077.19;;;22.90;100.00
64521;BME280;50896;46.714;17.322;2023-06-10T08:36:21;100082.56;;;22.62;100.00
64521;BME280;50896;46.714;17.322;2023-06-10T08:38:48;100087.13;;;22.40;100.00
64521;BME280;50896;46.714;17.322;2023-06-10T08:41:17;100077.28;;;22.33;100.00
64521;BME280;50896;46.714;17.322;2023-06-10T08:44:01;100076.78;;;22.19;100.00
64521;BME280;50896;46.714;17.322;2023-06-10T08:46:31;100078.16;;;21.71;100.00
64521;BME280;50896;46.714;17.322;2023-06-10T08:49:02;100082.00;;;21.75;100.00
64521;BME280;50896;46.714;17.322;2023-06-10T08:51:32;100081.53;;;21.78;100.00
64521;BME280;50896;46.714;17.322;2023-06-10T08:54:04;100071.72;;;22.06;100.00
64521;BME280;50896;46.714;17.322;2023-06-10T08:56:36;100075.47;;;22.05;100.00
64521;BME280;50896;46.714;17.322;2023-06-10T08:59:06;100077.69;;;21.91;100.00
64521;BME280;50896;46.714;17.322;2023-06-10T09:01:33;100077.09;;;21.89;100.00
64521;BME280;50896;46.714;17.322;2023-06-10T09:04:01;100079.50;;;21.68;100.00
64521;BME280;50896;46.714;17.322;2023-06-10T09:06:28;100076.44;;;21.65;100.00
64521;BME280;50896;46.714;17.322;2023-06-10T09:08:56;100075.22;;;21.73;100.00
64521;BME280;50896;46.714;17.322;2023-06-10T09:11:27;100072.44;;;21.84;100.00
64521;BME280;50896;46.714;17.322;2023-06-10T09:13:53;100080.66;;;21.90;100.00
64521;BME280;50896;46.714;17.322;2023-06-10T09:16:20;100074.53;;;21.65;100.00
64521;BME280;50896;46.714;17.322;2023-06-10T09:18:48;100068.56;;;21.63;100.00
64521;BME280;50896;46.714;17.322;2023-06-10T09:21:15;100063.75;;;21.37;100.00
64521;BME280;50896;46.714;17.322;2023-06-10T09:23:43;100073.28;;;21.27;100.00
64521;BME280;50896;46.714;17.322;2023-06-10T09:26:10;100065.03;;;21.34;100.00
64521;BME280;50896;46.714;17.322;2023-06-10T09:28:38;100069.78;;;21.56;100.00
64521;BME280;50896;46.714;17.322;2023-06-10T09:31:06;100058.56;;;21.81;100.00
64521;BME280;50896;46.714;17.322;2023-06-10T09:33:40;100058.25;;;21.77;100.00
64521;BME280;50896;46.714;17.322;2023-06-10T09:36:07;100057.00;;;21.85;100.00
64521;BME280;50896;46.714;17.322;2023-06-10T09:38:34;100051.53;;;21.97;100.00
64521;BME280;50896;46.714;17.322;2023-06-10T09:41:02;100056.84;;;22.09;100.00
64521;BME280;50896;46.714;17.322;2023-06-10T09:43:43;100056.75;;;22.21;100.00
64521;BME280;50896;46.714;17.322;2023-06-10T09:46:17;100054.94;;;22.26;100.00
64521;BME280;50896;46.714;17.322;2023-06-10T09:48:46;100048.22;;;22.29;100.00
64521;BME280;50896;46.714;17.322;2023-06-10T09:51:14;100054.19;;;22.31;100.00
64521;BME280;50896;46.714;17.322;2023-06-10T09:53:42;100046.25;;;22.41;100.00
64521;BME280;50896;46.714;17.322;2023-06-10T09:56:12;100049.03;;;22.46;100.00
64521;BME280;50896;46.714;17.322;2023-06-10T09:58:39;100056.44;;;22.34;100.00
64521;BME280;50896;46.714;17.322;2023-06-10T10:01:09;100053.63;;;22.29;100.00
64521;BME280;50896;46.714;17.322;2023-06-10T10:03:46;100053.53;;;22.41;100.00
64521;BME280;50896;46.714;17.322;2023-06-10T10:06:16;100050.59;;;22.42;100.00
64521;BME280;50896;46.714;17.322;2023-06-10T10:08:45;100048.97;;;22.41;100.00
64521;BME280;50896;46.714;17.322;2023-06-10T10:11:12;100047.78;;;22.54;100.00
64521;BME280;50896;46.714;17.322;2023-06-10T10:13:39;100041.91;;;22.40;100.00
64521;BME280;50896;46.714;17.322;2023-06-10T10:16:11;100043.25;;;22.60;100.00
64521;BME280;50896;46.714;17.322;2023-06-10T10:18:40;100042.03;;;22.73;100.00
64521;BME280;50896;46.714;17.322;2023-06-10T10:21:12;100043.28;;;22.87;100.00
64521;BME280;50896;46.714;17.322;2023-06-10T10:24:04;100039.22;;;22.84;100.00
64521;BME280;50896;46.714;17.322;2023-06-10T10:26:32;100041.41;;;22.87;100.00
64521;BME280;50896;46.714;17.322;2023-06-10T10:31:32;100037.66;;;22.66;100.00
64521;BME280;50896;46.714;17.322;2023-06-10T10:34:06;100039.84;;;22.69;100.00
64521;BME280;50896;46.714;17.322;2023-06-10T10:36:34;100043.25;;;22.60;100.00
64521;BME280;50896;46.714;17.322;2023-06-10T10:39:04;100033.78;;;22.40;100.00
64521;BME280;50896;46.714;17.322;2023-06-10T10:41:31;100031.97;;;22.29;100.00
64521;BME280;50896;46.714;17.322;2023-06-10T10:44:00;100023.22;;;22.05;100.00
64521;BME280;50896;46.714;17.322;2023-06-10T10:46:27;100030.94;;;21.79;100.00
64521;BME280;50896;46.714;17.322;2023-06-10T10:48:54;100039.41;;;21.82;100.00
64521;BME280;50896;46.714;17.322;2023-06-10T10:51:23;100036.47;;;21.84;100.00
64521;BME280;50896;46.714;17.322;2023-06-10T10:54:09;100036.84;;;21.93;100.00
64521;BME280;50896;46.714;17.322;2023-06-10T10:56:37;100039.16;;;22.01;100.00
64521;BME280;50896;46.714;17.322;2023-06-10T10:59:04;100033.38;;;22.14;100.00
64521;BME280;50896;46.714;17.322;2023-06-10T11:01:42;100028.69;;;22.27;100.00
64521;BME280;50896;46.714;17.322;2023-06-10T11:04:09;100028.53;;;22.33;100.00
64521;BME280;50896;46.714;17.322;2023-06-10T11:06:36;100035.81;;;22.33;100.00
64521;BME280;50896;46.714;17.322;2023-06-10T11:09:25;100027.47;;;22.34;100.00
64521;BME280;50896;46.714;17.322;2023-06-10T11:11:57;100034.84;;;22.22;100.00
64521;BME280;50896;46.714;17.322;2023-06-10T11:14:29;100025.00;;;22.33;100.00
64521;BME280;50896;46.714;17.322;2023-06-10T11:16:57;100015.09;;;22.22;100.00
64521;BME280;50896;46.714;17.322;2023-06-10T11:19:34;100012.78;;;22.30;100.00
64521;BME280;50896;46.714;17.322;2023-06-10T11:22:05;100002.69;;;22.26;100.00
64521;BME280;50896;46.714;17.322;2023-06-10T11:24:33;100011.41;;;22.11;100.00
64521;BME280;50896;46.714;17.322;2023-06-10T11:27:38;100002.69;;;22.26;100.00
64521;BME280;50896;46.714;17.322;2023-06-10T11:32:34;100006.53;;;22.30;100.00
64521;BME280;50896;46.714;17.322;2023-06-10T11:35:07;100002.94;;;22.41;100.00
64521;BME280;50896;46.714;17.322;2023-06-10T11:37:34;99999.97;;;22.43;100.00
64521;BME280;50896;46.714;17.322;2023-06-10T11:40:02;99998.00;;;22.38;100.00
64521;BME280;50896;46.714;17.322;2023-06-10T11:42:29;99998.88;;;22.44;100.00
64521;BME280;50896;46.714;17.322;2023-06-10T11:44:56;99993.25;;;22.45;100.00
64521;BME280;50896;46.714;17.322;2023-06-10T11:47:23;99995.94;;;22.45;100.00
64521;BME280;50896;46.714;17.322;2023-06-10T11:49:56;99990.28;;;22.47;100.00
64521;BME280;50896;46.714;17.322;2023-06-10T11:52:29;99993.78;;;22.47;100.00
64521;BME280;50896;46.714;17.322;2023-06-10T11:54:57;99985.41;;;22.49;100.00
64521;BME280;50896;46.714;17.322;2023-06-10T11:57:24;99986.81;;;22.51;100.00
64521;BME280;50896;46.714;17.322;2023-06-10T11:59:51;99983.28;;;22.51;100.00
64521;BME280;50896;46.714;17.322;2023-06-10T12:02:18;99984.34;;;22.50;100.00
64521;BME280;50896;46.714;17.322;2023-06-10T12:04:46;99986.09;;;22.39;100.00
64521;BME280;50896;46.714;17.322;2023-06-10T12:07:19;99981.28;;;22.41;100.00
64521;BME280;50896;46.714;17.322;2023-06-10T12:09:46;99985.34;;;22.44;100.00
64521;BME280;50896;46.714;17.322;2023-06-10T12:12:13;99978.06;;;22.44;100.00
64521;BME280;50896;46.714;17.322;2023-06-10T12:15:00;99976.16;;;22.45;100.00
64521;BME280;50896;46.714;17.322;2023-06-10T12:20:00;99968.63;;;22.30;100.00
64521;BME280;50896;46.714;17.322;2023-06-10T12:22:36;99971.53;;;22.23;100.00
64521;BME280;50896;46.714;17.322;2023-06-10T12:25:05;99968.63;;;22.30;100.00
64521;BME280;50896;46.714;17.322;2023-06-10T12:27:34;99969.44;;;22.30;100.00
64521;BME280;50896;46.714;17.322;2023-06-10T12:30:03;99964.53;;;22.27;100.00
64521;BME280;50896;46.714;17.322;2023-06-10T12:32:50;99959.94;;;22.28;100.00
64521;BME280;50896;46.714;17.322;2023-06-10T12:35:20;99954.47;;;22.45;100.00
64521;BME280;50896;46.714;17.322;2023-06-10T12:38:08;99965.50;;;22.60;100.00
64521;BME280;50896;46.714;17.322;2023-06-10T12:40:38;99959.81;;;22.62;100.00
64521;BME280;50896;46.714;17.322;2023-06-10T12:43:09;99958.81;;;22.68;100.00
64521;BME280;50896;46.714;17.322;2023-06-10T12:45:37;99958.47;;;22.86;100.00
64521;BME280;50896;46.714;17.322;2023-06-10T12:48:12;99956.03;;;22.85;100.00
64521;BME280;50896;46.714;17.322;2023-06-10T12:50:41;99952.28;;;22.64;100.00
64521;BME280;50896;46.714;17.322;2023-06-10T12:53:08;99956.66;;;22.70;100.00